sensor_id;sensor_type;location;lat;lon;timestamp;pressure;altitude;pressure_sealevel;temperature;humidity
40570;BME280;26270;34.428;-119.710;2022-08-19T00:02:06;100767.92;;;26.33;41.76
40570;BME280;26270;34.428;-119.710;2022-08-19T00:04:35;100766.51;;;26.37;41.98
40570;BME280;26270;34.428;-119.710;2022-08-19T00:07:05;100772.50;;;25.96;42.39
40570;BME280;26270;34.428;-119.710;2022-08-19T00:09:34;100773.48;;;25.85;42.95
40570;BME280;26270;34.428;-119.710;2022-08-19T00:12:03;100771.20;;;25.80;43.00
40570;BME280;26270;34.428;-119.710;2022-08-19T00:14:32;100769.34;;;25.51;43.48
40570;BME280;26270;34.428;-119.710;2022-08-19T00:17:00;100772.15;;;25.43;43.71
40570;BME280;26270;34.428;-119.710;2022-08-19T00:19:29;100764.25;;;25.39;44.11
40570;BME280;26270;34.428;-119.710;2022-08-19T00:21:58;100759.99;;;25.42;44.39
40570;BME280;26270;34.428;-119.710;2022-08-19T00:24:26;100756.44;;;25.25;44.34
40570;BME280;26270;34.428;-119.710;2022-08-19T00:26:54;100750.20;;;25.12;44.52
40570;BME280;26270;34.428;-119.710;2022-08-19T00:29:24;100751.34;;;24.76;45.55
40570;BME280;26270;34.428;-119.710;2022-08-19T00:31:53;100749.86;;;25.07;45.14
40570;BME280;26270;34.428;-119.710;2022-08-19T00:34:22;100743.19;;;25.16;44.94
40570;BME280;26270;34.428;-119.710;2022-08-19T00:36:50;100740.72;;;24.70;45.36
40570;BME280;26270;34.428;-119.710;2022-08-19T00:39:18;100741.41;;;24.96;45.34
40570;BME280;26270;34.428;-119.710;2022-08-19T00:41:48;100737.52;;;24.91;45.14
40570;BME280;26270;34.428;-119.710;2022-08-19T00:44:19;100732.06;;;24.80;45.40
40570;BME280;26270;34.428;-119.710;2022-08-19T00:46:50;100729.57;;;24.30;46.24
40570;BME280;26270;34.428;-119.710;2022-08-19T00:49:24;100723.45;;;24.18;47.05
40570;BME280;26270;34.428;-119.710;2022-08-19T00:51:58;100723.40;;;24.47;46.99
40570;BME280;26270;34.428;-119.710;2022-08-19T00:54:29;100723.05;;;24.59;46.76
40570;BME280;26270;34.428;-119.710;2022-08-19T00:56:58;100716.75;;;24.38;46.91
40570;BME280;26270;34.428;-119.710;2022-08-19T00:59:28;100721.74;;;24.36;46.72
40570;BME280;26270;34.428;-119.710;2022-08-19T01:01:57;100717.71;;;24.31;47.16
40570;BME280;26270;34.428;-119.710;2022-08-19T01:04:25;100719.14;;;23.98;47.67
40570;BME280;26270;34.428;-119.710;2022-08-19T01:06:53;100716.25;;;23.81;47.86
40570;BME280;26270;34.428;-119.710;2022-08-19T01:09:22;100716.91;;;23.74;48.37
40570;BME280;26270;34.428;-119.710;2022-08-19T01:11:50;100710.39;;;23.81;48.55
40570;BME280;26270;34.428;-119.710;2022-08-19T01:14:19;100711.89;;;23.28;49.96
40570;BME280;26270;34.428;-119.710;2022-08-19T01:16:48;100712.13;;;23.23;49.87
40570;BME280;26270;34.428;-119.710;2022-08-19T01:19:26;100707.87;;;23.06;50.67
40570;BME280;26270;34.428;-119.710;2022-08-19T01:22:00;100706.09;;;23.18;50.40
40570;BME280;26270;34.428;-119.710;2022-08-19T01:24:30;100706.09;;;22.98;50.69
40570;BME280;26270;34.428;-119.710;2022-08-19T01:26:58;100698.66;;;22.85;51.47
40570;BME280;26270;34.428;-119.710;2022-08-19T01:29:26;100697.95;;;23.03;50.88
40570;BME280;26270;34.428;-119.710;2022-08-19T01:31:54;100695.07;;;22.67;52.04
40570;BME280;26270;34.428;-119.710;2022-08-19T01:34:23;100693.33;;;22.53;52.35
40570;BME280;26270;34.428;-119.710;2022-08-19T01:36:51;100691.72;;;22.73;52.47
40570;BME280;26270;34.428;-119.710;2022-08-19T01:39:23;100687.98;;;22.64;52.44
40570;BME280;26270;34.428;-119.710;2022-08-19T01:41:52;100680.44;;;22.42;53.15
40570;BME280;26270;34.428;-119.710;2022-08-19T01:44:20;100689.08;;;22.30;53.55
40570;BME280;26270;34.428;-119.710;2022-08-19T01:46:49;100689.22;;;22.33;53.61
40570;BME280;26270;34.428;-119.710;2022-08-19T01:49:19;100688.51;;;22.10;54.22
40570;BME280;26270;34.428;-119.710;2022-08-19T01:51:49;100686.17;;;21.99;54.48
40570;BME280;26270;34.428;-119.710;2022-08-19T01:54:20;100685.16;;;21.98;54.79
40570;BME280;26270;34.428;-119.710;2022-08-19T01:56:49;100680.49;;;21.78;55.46
40570;BME280;26270;34.428;-119.710;2022-08-19T01:59:21;100682.87;;;21.65;55.52
40570;BME280;26270;34.428;-119.710;2022-08-19T02:01:51;100681.37;;;21.66;55.63
40570;BME280;26270;34.428;-119.710;2022-08-19T02:04:20;100678.82;;;21.50;56.07
40570;BME280;26270;34.428;-119.710;2022-08-19T02:06:48;100672.32;;;21.51;56.07
40570;BME280;26270;34.428;-119.710;2022-08-19T02:09:16;100670.39;;;21.65;56.00
40570;BME280;26270;34.428;-119.710;2022-08-19T02:11:44;100674.59;;;21.55;56.22
40570;BME280;26270;34.428;-119.710;2022-08-19T02:14:12;100676.12;;;21.43;56.71
40570;BME280;26270;34.428;-119.710;2022-08-19T02:16:41;100674.77;;;21.27;57.16
40570;BME280;26270;34.428;-119.710;2022-08-19T02:19:09;100680.01;;;21.07;57.49
40570;BME280;26270;34.428;-119.710;2022-08-19T02:21:37;100668.20;;;21.17;57.54
40570;BME280;26270;34.428;-119.710;2022-08-19T02:24:05;100671.33;;;20.81;58.69
40570;BME280;26270;34.428;-119.710;2022-08-19T02:26:34;100673.65;;;20.93;58.11
40570;BME280;26270;34.428;-119.710;2022-08-19T02:29:02;100677.05;;;21.05;58.25
40570;BME280;26270;34.428;-119.710;2022-08-19T02:31:30;100678.61;;;20.84;58.44
40570;BME280;26270;34.428;-119.710;2022-08-19T02:33:58;100679.45;;;20.89;58.82
40570;BME280;26270;34.428;-119.710;2022-08-19T02:36:27;100679.37;;;20.75;58.78
40570;BME280;26270;34.428;-119.710;2022-08-19T02:38:55;100682.52;;;20.76;58.89
40570;BME280;26270;34.428;-119.710;2022-08-19T02:41:26;100683.19;;;20.87;58.91
40570;BME280;26270;34.428;-119.710;2022-08-19T02:43:54;100695.79;;;20.84;58.99
40570;BME280;26270;34.428;-119.710;2022-08-19T02:46:25;100688.95;;;20.54;59.71
40570;BME280;26270;34.428;-119.710;2022-08-19T02:48:55;100692.55;;;20.68;59.43
40570;BME280;26270;34.428;-119.710;2022-08-19T02:51:25;100691.35;;;20.59;59.61
40570;BME280;26270;34.428;-119.710;2022-08-19T02:53:54;100693.20;;;20.52;60.12
40570;BME280;26270;34.428;-119.710;2022-08-19T02:56:23;100689.51;;;20.46;60.15
40570;BME280;26270;34.428;-119.710;2022-08-19T02:58:52;100696.29;;;20.44;60.83
40570;BME280;26270;34.428;-119.710;2022-08-19T03:01:22;100694.19;;;20.47;60.92
40570;BME280;26270;34.428;-119.710;2022-08-19T03:03:52;100696.54;;;20.25;61.13
40570;BME280;26270;34.428;-119.710;2022-08-19T03:06:21;100695.95;;;20.26;61.26
40570;BME280;26270;34.428;-119.710;2022-08-19T03:08:49;100700.96;;;20.39;61.89
40570;BME280;26270;34.428;-119.710;2022-08-19T03:11:21;100699.65;;;20.09;61.69
40570;BME280;26270;34.428;-119.710;2022-08-19T03:13:50;100698.97;;;20.24;62.02
40570;BME280;26270;34.428;-119.710;2022-08-19T03:16:20;100705.09;;;20.07;62.31
40570;BME280;26270;34.428;-119.710;2022-08-19T03:18:50;100706.02;;;20.06;62.13
40570;BME280;26270;34.428;-119.710;2022-08-19T03:21:22;100705.97;;;20.31;61.96
40570;BME280;26270;34.428;-119.710;2022-08-19T03:23:54;100711.17;;;20.23;62.05
40570;BME280;26270;34.428;-119.710;2022-08-19T03:26:22;100710.04;;;20.29;61.97
40570;BME280;26270;34.428;-119.710;2022-08-19T03:28:50;100705.26;;;20.19;62.13
40570;BME280;26270;34.428;-119.710;2022-08-19T03:31:21;100714.48;;;20.21;61.99
40570;BME280;26270;34.428;-119.710;2022-08-19T03:33:50;100711.43;;;20.23;62.28
40570;BME280;26270;34.428;-119.710;2022-08-19T03:36:21;100721.22;;;20.24;62.65
40570;BME280;26270;34.428;-119.710;2022-08-19T03:38:51;100715.39;;;20.31;62.75
40570;BME280;26270;34.428;-119.710;2022-08-19T03:41:23;100715.88;;;20.03;62.77
40570;BME280;26270;34.428;-119.710;2022-08-19T03:43:52;100718.75;;;20.01;62.56
40570;BME280;26270;34.428;-119.710;2022-08-19T03:46:24;100718.91;;;20.13;62.68
40570;BME280;26270;34.428;-119.710;2022-08-19T03:48:55;100721.52;;;20.11;62.77
40570;BME280;26270;34.428;-119.710;2022-08-19T03:51:25;100728.16;;;19.92;63.35
40570;BME280;26270;34.428;-119.710;2022-08-19T03:53:54;100734.16;;;19.93;63.39
40570;BME280;26270;34.428;-119.710;2022-08-19T03:56:23;100735.05;;;19.69;63.46
40570;BME280;26270;34.428;-119.710;2022-08-19T03:58:53;100737.53;;;19.92;63.31
40570;BME280;26270;34.428;-119.710;2022-08-19T04:03:20;100742.53;;;20.07;63.24
40570;BME280;26270;34.428;-119.710;2022-08-19T04:05:48;100746.49;;;19.92;63.90
40570;BME280;26270;34.428;-119.710;2022-08-19T04:08:16;100747.34;;;19.92;63.54
40570;BME280;26270;34.428;-119.710;2022-08-19T04:10:45;100751.59;;;20.05;63.55
40570;BME280;26270;34.428;-119.710;2022-08-19T04:13:13;100752.67;;;19.83;63.91
40570;BME280;26270;34.428;-119.710;2022-08-19T04:15:42;100755.57;;;19.79;64.17
40570;BME280;26270;34.428;-119.710;2022-08-19T04:18:11;100759.08;;;19.79;63.90
40570;BME280;26270;34.428;-119.710;2022-08-19T04:20:43;100757.72;;;19.88;63.92
40570;BME280;26270;34.428;-119.710;2022-08-19T04:23:12;100759.61;;;19.71;64.01
40570;BME280;26270;34.428;-119.710;2022-08-19T04:25:42;100766.81;;;19.80;64.06
40570;BME280;26270;34.428;-119.710;2022-08-19T04:28:13;100765.14;;;19.76;63.80
40570;BME280;26270;34.428;-119.710;2022-08-19T04:30:43;100765.11;;;19.85;63.95
40570;BME280;26270;34.428;-119.710;2022-08-19T04:33:13;100760.24;;;19.83;63.94
40570;BME280;26270;34.428;-119.710;2022-08-19T04:35:45;100767.13;;;19.71;64.01
40570;BME280;26270;34.428;-119.710;2022-08-19T04:38:15;100771.53;;;19.77;63.85
40570;BME280;26270;34.428;-119.710;2022-08-19T04:40:47;100763.81;;;19.69;63.86
40570;BME280;26270;34.428;-119.710;2022-08-19T04:43:15;100768.70;;;19.79;64.17
40570;BME280;26270;34.428;-119.710;2022-08-19T04:45:44;100761.43;;;19.59;64.46
40570;BME280;26270;34.428;-119.710;2022-08-19T04:48:12;100762.41;;;19.60;64.37
40570;BME280;26270;34.428;-119.710;2022-08-19T04:50:42;100759.15;;;19.64;64.01
40570;BME280;26270;34.428;-119.710;2022-08-19T04:53:11;100766.29;;;19.75;64.04
40570;BME280;26270;34.428;-119.710;2022-08-19T04:55:41;100769.95;;;19.70;64.11
40570;BME280;26270;34.428;-119.710;2022-08-19T04:58:09;100760.90;;;19.55;64.60
40570;BME280;26270;34.428;-119.710;2022-08-19T05:00:39;100760.07;;;19.73;64.45
40570;BME280;26270;34.428;-119.710;2022-08-19T05:03:07;100764.22;;;19.44;64.59
40570;BME280;26270;34.428;-119.710;2022-08-19T05:05:39;100768.60;;;19.43;64.96
40570;BME280;26270;34.428;-119.710;2022-08-19T05:08:08;100768.74;;;19.57;64.78
40570;BME280;26270;34.428;-119.710;2022-08-19T05:10:37;100772.45;;;19.33;64.62
40570;BME280;26270;34.428;-119.710;2022-08-19T05:13:05;100769.15;;;19.28;65.08
40570;BME280;26270;34.428;-119.710;2022-08-19T05:15:34;100771.70;;;19.44;65.34
40570;BME280;26270;34.428;-119.710;2022-08-19T05:18:02;100764.69;;;19.41;64.85
40570;BME280;26270;34.428;-119.710;2022-08-19T05:20:31;100766.21;;;19.42;64.97
40570;BME280;26270;34.428;-119.710;2022-08-19T05:22:59;100766.52;;;19.35;65.53
40570;BME280;26270;34.428;-119.710;2022-08-19T05:25:27;100760.87;;;19.43;65.27
40570;BME280;26270;34.428;-119.710;2022-08-19T05:27:55;100760.16;;;19.49;65.13
40570;BME280;26270;34.428;-119.710;2022-08-19T05:30:24;100764.46;;;19.37;65.62
40570;BME280;26270;34.428;-119.710;2022-08-19T05:32:52;100756.58;;;19.37;65.45
40570;BME280;26270;34.428;-119.710;2022-08-19T05:35:20;100761.96;;;19.30;65.57
40570;BME280;26270;34.428;-119.710;2022-08-19T05:37:49;100770.72;;;19.39;65.15
40570;BME280;26270;34.428;-119.710;2022-08-19T05:40:17;100766.47;;;19.25;65.45
40570;BME280;26270;34.428;-119.710;2022-08-19T05:42:45;100761.30;;;19.18;65.55
40570;BME280;26270;34.428;-119.710;2022-08-19T05:45:14;100763.44;;;19.38;65.40
40570;BME280;26270;34.428;-119.710;2022-08-19T05:47:42;100767.44;;;19.21;65.53
40570;BME280;26270;34.428;-119.710;2022-08-19T05:50:10;100769.70;;;19.44;65.49
40570;BME280;26270;34.428;-119.710;2022-08-19T05:52:39;100774.67;;;19.35;65.34
40570;BME280;26270;34.428;-119.710;2022-08-19T05:55:07;100773.67;;;19.41;65.14
40570;BME280;26270;34.428;-119.710;2022-08-19T05:57:36;100774.58;;;19.30;65.46
40570;BME280;26270;34.428;-119.710;2022-08-19T06:00:06;100782.61;;;19.14;65.55
40570;BME280;26270;34.428;-119.710;2022-08-19T06:02:34;100782.87;;;19.20;65.36
40570;BME280;26270;34.428;-119.710;2022-08-19T06:05:03;100773.87;;;19.31;65.28
40570;BME280;26270;34.428;-119.710;2022-08-19T06:07:32;100778.17;;;19.31;65.32
40570;BME280;26270;34.428;-119.710;2022-08-19T06:10:00;100776.30;;;19.39;65.33
40570;BME280;26270;34.428;-119.710;2022-08-19T06:12:28;100776.57;;;19.29;65.44
40570;BME280;26270;34.428;-119.710;2022-08-19T06:14:57;100771.42;;;19.22;65.70
40570;BME280;26270;34.428;-119.710;2022-08-19T06:17:25;100772.88;;;19.11;65.47
40570;BME280;26270;34.428;-119.710;2022-08-19T06:19:54;100772.58;;;19.27;65.44
40570;BME280;26270;34.428;-119.710;2022-08-19T06:22:22;100777.95;;;19.39;65.12
40570;BME280;26270;34.428;-119.710;2022-08-19T06:24:51;100773.84;;;19.25;65.49
40570;BME280;26270;34.428;-119.710;2022-08-19T06:27:19;100772.65;;;19.10;65.58
40570;BME280;26270;34.428;-119.710;2022-08-19T06:29:48;100773.32;;;19.22;65.48
40570;BME280;26270;34.428;-119.710;2022-08-19T06:32:17;100772.96;;;19.20;65.63
40570;BME280;26270;34.428;-119.710;2022-08-19T06:34:45;100773.21;;;19.20;65.55
40570;BME280;26270;34.428;-119.710;2022-08-19T06:37:14;100771.93;;;19.30;65.30
40570;BME280;26270;34.428;-119.710;2022-08-19T06:39:44;100770.98;;;19.19;65.61
40570;BME280;26270;34.428;-119.710;2022-08-19T06:42:13;100763.43;;;19.05;65.67
40570;BME280;26270;34.428;-119.710;2022-08-19T06:44:42;100771.34;;;19.03;65.66
40570;BME280;26270;34.428;-119.710;2022-08-19T06:47:14;100767.84;;;19.25;65.51
40570;BME280;26270;34.428;-119.710;2022-08-19T06:49:42;100769.88;;;19.25;65.52
40570;BME280;26270;34.428;-119.710;2022-08-19T06:52:12;100768.90;;;19.21;65.77
40570;BME280;26270;34.428;-119.710;2022-08-19T06:54:41;100766.29;;;19.07;65.50
40570;BME280;26270;34.428;-119.710;2022-08-19T06:57:10;100770.39;;;19.23;66.14
40570;BME280;26270;34.428;-119.710;2022-08-19T06:59:38;100767.20;;;19.10;66.27
40570;BME280;26270;34.428;-119.710;2022-08-19T07:02:07;100780.57;;;19.18;65.96
40570;BME280;26270;34.428;-119.710;2022-08-19T07:04:36;100774.02;;;19.07;66.22
40570;BME280;26270;34.428;-119.710;2022-08-19T07:07:08;100774.87;;;18.94;66.46
40570;BME280;26270;34.428;-119.710;2022-08-19T07:09:38;100776.90;;;18.97;66.82
40570;BME280;26270;34.428;-119.710;2022-08-19T07:12:08;100782.06;;;18.96;66.81
40570;BME280;26270;34.428;-119.710;2022-08-19T07:14:37;100784.04;;;19.06;66.51
40570;BME280;26270;34.428;-119.710;2022-08-19T07:17:09;100783.80;;;19.19;66.54
40570;BME280;26270;34.428;-119.710;2022-08-19T07:19:38;100782.49;;;18.92;66.65
40570;BME280;26270;34.428;-119.710;2022-08-19T07:22:08;100790.84;;;19.00;66.86
40570;BME280;26270;34.428;-119.710;2022-08-19T07:24:37;100788.09;;;19.11;66.98
40570;BME280;26270;34.428;-119.710;2022-08-19T07:27:07;100788.05;;;18.91;67.22
40570;BME280;26270;34.428;-119.710;2022-08-19T07:29:36;100788.16;;;18.87;66.82
40570;BME280;26270;34.428;-119.710;2022-08-19T07:32:05;100784.88;;;18.93;66.77
40570;BME280;26270;34.428;-119.710;2022-08-19T07:34:34;100787.49;;;19.18;66.77
40570;BME280;26270;34.428;-119.710;2022-08-19T07:37:02;100780.44;;;19.04;66.81
40570;BME280;26270;34.428;-119.710;2022-08-19T07:39:32;100783.84;;;19.06;67.05
40570;BME280;26270;34.428;-119.710;2022-08-19T07:42:02;100773.46;;;18.99;66.87
40570;BME280;26270;34.428;-119.710;2022-08-19T07:44:31;100773.68;;;18.97;66.74
40570;BME280;26270;34.428;-119.710;2022-08-19T07:47:01;100770.19;;;19.12;66.36
40570;BME280;26270;34.428;-119.710;2022-08-19T07:49:28;100765.27;;;19.06;66.65
40570;BME280;26270;34.428;-119.710;2022-08-19T07:51:59;100765.66;;;19.12;66.63
40570;BME280;26270;34.428;-119.710;2022-08-19T07:54:30;100768.90;;;19.05;66.83
40570;BME280;26270;34.428;-119.710;2022-08-19T07:56:59;100763.85;;;18.89;66.79
40570;BME280;26270;34.428;-119.710;2022-08-19T07:59:27;100753.46;;;19.11;66.48
40570;BME280;26270;34.428;-119.710;2022-08-19T08:01:57;100750.89;;;19.10;66.77
40570;BME280;26270;34.428;-119.710;2022-08-19T08:04:25;100751.98;;;19.16;66.70
40570;BME280;26270;34.428;-119.710;2022-08-19T08:06:54;100750.03;;;18.85;66.79
40570;BME280;26270;34.428;-119.710;2022-08-19T08:09:25;100749.65;;;18.96;67.01
40570;BME280;26270;34.428;-119.710;2022-08-19T08:11:57;100748.05;;;19.01;66.85
40570;BME280;26270;34.428;-119.710;2022-08-19T08:14:29;100746.92;;;18.91;67.21
40570;BME280;26270;34.428;-119.710;2022-08-19T08:16:58;100740.75;;;18.90;67.22
40570;BME280;26270;34.428;-119.710;2022-08-19T08:19:28;100741.19;;;18.80;67.33
40570;BME280;26270;34.428;-119.710;2022-08-19T08:21:58;100744.49;;;18.93;67.13
40570;BME280;26270;34.428;-119.710;2022-08-19T08:24:29;100738.20;;;18.98;67.32
40570;BME280;26270;34.428;-119.710;2022-08-19T08:26:59;100735.95;;;19.00;67.28
40570;BME280;26270;34.428;-119.710;2022-08-19T08:29:29;100743.28;;;19.11;66.90
40570;BME280;26270;34.428;-119.710;2022-08-19T08:31:58;100748.80;;;18.78;67.38
40570;BME280;26270;34.428;-119.710;2022-08-19T08:34:26;100749.03;;;19.02;67.02
40570;BME280;26270;34.428;-119.710;2022-08-19T08:36:54;100744.57;;;18.89;67.41
40570;BME280;26270;34.428;-119.710;2022-08-19T08:39:22;100748.18;;;18.81;67.19
40570;BME280;26270;34.428;-119.710;2022-08-19T08:41:55;100752.73;;;19.00;66.77
40570;BME280;26270;34.428;-119.710;2022-08-19T08:44:43;100746.11;;;19.02;66.95
40570;BME280;26270;34.428;-119.710;2022-08-19T08:47:18;100752.51;;;18.87;67.32
40570;BME280;26270;34.428;-119.710;2022-08-19T08:49:52;100744.19;;;18.81;67.63
40570;BME280;26270;34.428;-119.710;2022-08-19T08:52:25;100737.89;;;19.01;66.97
40570;BME280;26270;34.428;-119.710;2022-08-19T08:54:55;100742.37;;;18.74;67.83
40570;BME280;26270;34.428;-119.710;2022-08-19T08:57:29;100749.95;;;18.83;67.54
40570;BME280;26270;34.428;-119.710;2022-08-19T09:00:02;100750.97;;;18.71;67.88
40570;BME280;26270;34.428;-119.710;2022-08-19T09:02:32;100748.58;;;18.76;67.65
40570;BME280;26270;34.428;-119.710;2022-08-19T09:05:00;100752.95;;;18.77;67.67
40570;BME280;26270;34.428;-119.710;2022-08-19T09:07:39;100758.99;;;18.70;68.34
40570;BME280;26270;34.428;-119.710;2022-08-19T09:10:17;100756.14;;;18.66;68.27
40570;BME280;26270;34.428;-119.710;2022-08-19T09:12:57;100754.51;;;18.63;68.28
40570;BME280;26270;34.428;-119.710;2022-08-19T09:15:29;100743.39;;;18.74;68.22
40570;BME280;26270;34.428;-119.710;2022-08-19T09:18:02;100736.21;;;18.85;67.93
40570;BME280;26270;34.428;-119.710;2022-08-19T09:20:31;100733.98;;;18.69;68.04
40570;BME280;26270;34.428;-119.710;2022-08-19T09:23:00;100732.00;;;18.85;67.69
40570;BME280;26270;34.428;-119.710;2022-08-19T09:25:28;100733.09;;;18.76;67.99
40570;BME280;26270;34.428;-119.710;2022-08-19T09:27:56;100736.04;;;18.71;67.41
40570;BME280;26270;34.428;-119.710;2022-08-19T09:30:27;100733.50;;;18.61;67.88
40570;BME280;26270;34.428;-119.710;2022-08-19T09:32:55;100732.13;;;18.61;67.84
40570;BME280;26270;34.428;-119.710;2022-08-19T09:35:26;100728.06;;;18.61;67.65
40570;BME280;26270;34.428;-119.710;2022-08-19T09:37:55;100725.48;;;18.60;67.74
40570;BME280;26270;34.428;-119.710;2022-08-19T09:40:24;100731.49;;;18.53;67.70
40570;BME280;26270;34.428;-119.710;2022-08-19T09:42:53;100728.41;;;18.52;67.75
40570;BME280;26270;34.428;-119.710;2022-08-19T09:45:22;100730.29;;;18.76;67.29
40570;BME280;26270;34.428;-119.710;2022-08-19T09:47:52;100731.50;;;18.64;67.36
40570;BME280;26270;34.428;-119.710;2022-08-19T09:50:21;100730.08;;;18.68;67.67
40570;BME280;26270;34.428;-119.710;2022-08-19T09:52:49;100730.87;;;18.80;67.54
40570;BME280;26270;34.428;-119.710;2022-08-19T09:55:17;100724.23;;;18.87;67.22
40570;BME280;26270;34.428;-119.710;2022-08-19T09:57:46;100729.15;;;18.64;67.67
40570;BME280;26270;34.428;-119.710;2022-08-19T10:00:14;100728.28;;;18.63;67.68
40570;BME280;26270;34.428;-119.710;2022-08-19T10:02:42;100722.34;;;18.64;67.52
40570;BME280;26270;34.428;-119.710;2022-08-19T10:05:10;100726.19;;;18.63;67.62
40570;BME280;26270;34.428;-119.710;2022-08-19T10:07:39;100725.47;;;18.78;67.46
40570;BME280;26270;34.428;-119.710;2022-08-19T10:10:08;100723.06;;;18.77;67.18
40570;BME280;26270;34.428;-119.710;2022-08-19T10:12:36;100720.36;;;18.56;67.63
40570;BME280;26270;34.428;-119.710;2022-08-19T10:15:05;100724.18;;;18.55;67.68
40570;BME280;26270;34.428;-119.710;2022-08-19T10:17:33;100726.90;;;18.61;68.10
40570;BME280;26270;34.428;-119.710;2022-08-19T10:20:01;100720.76;;;18.69;67.51
40570;BME280;26270;34.428;-119.710;2022-08-19T10:22:30;100725.76;;;18.31;68.97
40570;BME280;26270;34.428;-119.710;2022-08-19T10:24:58;100723.80;;;18.29;68.94
40570;BME280;26270;34.428;-119.710;2022-08-19T10:27:26;100719.78;;;18.62;68.40
40570;BME280;26270;34.428;-119.710;2022-08-19T10:29:54;100722.08;;;18.82;67.63
40570;BME280;26270;34.428;-119.710;2022-08-19T10:32:22;100721.65;;;18.68;67.69
40570;BME280;26270;34.428;-119.710;2022-08-19T10:34:50;100725.00;;;18.64;67.93
40570;BME280;26270;34.428;-119.710;2022-08-19T10:37:18;100723.49;;;18.75;67.65
40570;BME280;26270;34.428;-119.710;2022-08-19T10:39:47;100718.03;;;18.79;67.22
40570;BME280;26270;34.428;-119.710;2022-08-19T10:42:15;100715.69;;;18.64;67.43
40570;BME280;26270;34.428;-119.710;2022-08-19T10:44:44;100718.63;;;18.66;67.61
40570;BME280;26270;34.428;-119.710;2022-08-19T10:47:12;100723.87;;;18.56;68.55
40570;BME280;26270;34.428;-119.710;2022-08-19T10:49:40;100719.88;;;18.61;68.08
40570;BME280;26270;34.428;-119.710;2022-08-19T10:52:08;100722.35;;;18.32;69.25
40570;BME280;26270;34.428;-119.710;2022-08-19T10:54:36;100720.81;;;18.61;68.72
40570;BME280;26270;34.428;-119.710;2022-08-19T10:57:05;100717.98;;;18.56;68.21
40570;BME280;26270;34.428;-119.710;2022-08-19T10:59:33;100710.70;;;18.74;68.06
40570;BME280;26270;34.428;-119.710;2022-08-19T11:02:02;100713.99;;;18.79;67.61
40570;BME280;26270;34.428;-119.710;2022-08-19T11:04:33;100713.27;;;18.89;67.64
40570;BME280;26270;34.428;-119.710;2022-08-19T11:07:01;100711.17;;;18.77;67.94
40570;BME280;26270;34.428;-119.710;2022-08-19T11:09:29;100711.06;;;18.77;67.47
40570;BME280;26270;34.428;-119.710;2022-08-19T11:11:58;100707.39;;;18.77;67.59
40570;BME280;26270;34.428;-119.710;2022-08-19T11:14:26;100705.98;;;18.62;67.70
40570;BME280;26270;34.428;-119.710;2022-08-19T11:16:54;100704.67;;;18.74;67.87
40570;BME280;26270;34.428;-119.710;2022-08-19T11:19:25;100702.10;;;18.73;68.07
40570;BME280;26270;34.428;-119.710;2022-08-19T11:21:53;100701.28;;;18.72;68.00
40570;BME280;26270;34.428;-119.710;2022-08-19T11:24:23;100700.66;;;18.60;68.22
40570;BME280;26270;34.428;-119.710;2022-08-19T11:26:53;100693.79;;;18.82;67.79
40570;BME280;26270;34.428;-119.710;2022-08-19T11:29:22;100696.60;;;18.22;69.82
40570;BME280;26270;34.428;-119.710;2022-08-19T11:31:50;100696.92;;;18.39;69.48
40570;BME280;26270;34.428;-119.710;2022-08-19T11:34:24;100698.75;;;18.47;68.90
40570;BME280;26270;34.428;-119.710;2022-08-19T11:36:52;100705.77;;;18.66;68.28
40570;BME280;26270;34.428;-119.710;2022-08-19T11:39:22;100702.98;;;18.61;68.06
40570;BME280;26270;34.428;-119.710;2022-08-19T11:41:49;100705.89;;;18.72;67.53
40570;BME280;26270;34.428;-119.710;2022-08-19T11:44:19;100704.26;;;18.90;67.35
40570;BME280;26270;34.428;-119.710;2022-08-19T11:46:47;100705.26;;;18.63;67.64
40570;BME280;26270;34.428;-119.710;2022-08-19T11:49:18;100706.30;;;18.88;67.20
40570;BME280;26270;34.428;-119.710;2022-08-19T11:51:48;100706.59;;;18.77;67.69
40570;BME280;26270;34.428;-119.710;2022-08-19T11:54:17;100706.20;;;18.61;68.39
40570;BME280;26270;34.428;-119.710;2022-08-19T11:56:45;100702.03;;;18.74;67.81
40570;BME280;26270;34.428;-119.710;2022-08-19T11:59:14;100711.53;;;18.68;67.59
40570;BME280;26270;34.428;-119.710;2022-08-19T12:01:42;100703.65;;;18.75;68.00
40570;BME280;26270;34.428;-119.710;2022-08-19T12:04:11;100703.40;;;18.84;67.52
40570;BME280;26270;34.428;-119.710;2022-08-19T12:06:41;100708.74;;;18.67;67.55
40570;BME280;26270;34.428;-119.710;2022-08-19T12:09:10;100708.43;;;18.63;67.64
40570;BME280;26270;34.428;-119.710;2022-08-19T12:11:40;100714.20;;;18.73;67.52
40570;BME280;26270;34.428;-119.710;2022-08-19T12:14:11;100723.44;;;18.76;67.42
40570;BME280;26270;34.428;-119.710;2022-08-19T12:16:39;100726.23;;;18.53;67.59
40570;BME280;26270;34.428;-119.710;2022-08-19T12:19:07;100725.49;;;18.56;67.35
40570;BME280;26270;34.428;-119.710;2022-08-19T12:21:35;100729.06;;;18.67;67.64
40570;BME280;26270;34.428;-119.710;2022-08-19T12:24:06;100729.75;;;18.50;67.67
40570;BME280;26270;34.428;-119.710;2022-08-19T12:26:34;100732.00;;;18.58;67.63
40570;BME280;26270;34.428;-119.710;2022-08-19T12:29:03;100733.05;;;18.49;67.98
40570;BME280;26270;34.428;-119.710;2022-08-19T12:31:32;100732.37;;;18.64;68.34
40570;BME280;26270;34.428;-119.710;2022-08-19T12:34:00;100734.38;;;18.54;68.32